Time;durP1;ratioP1;P1;durP2;ratioP2;P2;SDS_P1;SDS_P2;PMS_P1;PMS_P2;Temp;Humidity;BMP_temperature;BMP_pressure;BME280_temperature;BME280_humidity;BME280_pressure;Samples;Min_cycle;Max_cycle;Signal;HPM_P1;HPM_P2
2021/05/20 08:28:55;;;;;;;6.68;3.15;;;23.40;51.70;;;;;;3849134;37;20436;-69
2021/05/20 08:31:26;;;;;;;6.93;3.60;;;23.70;53.60;;;;;;4366752;32;20065;-68
2021/05/20 08:33:52;;;;;;;6.00;3.53;;;24.20;52.20;;;;;;4379844;32;20157;-70
2021/05/20 08:36:19;;;;;;;4.60;3.10;;;23.90;51.50;;;;;;4382957;32;20094;-70
2021/05/20 08:38:46;;;;;;;4.90;3.33;;;24.20;52.00;;;;;;4377224;32;20062;-67
2021/05/20 08:41:16;;;;;;;8.93;3.40;;;24.40;49.70;;;;;;4375836;32;20140;-65
2021/05/20 08:43:42;;;;;;;5.53;3.40;;;24.10;52.70;;;;;;4374460;32;20459;-66
2021/05/20 08:46:11;;;;;;;6.22;3.40;;;24.30;51.00;;;;;;4400900;32;20078;-61
2021/05/20 08:48:37;;;;;;;5.68;3.28;;;25.20;47.70;;;;;;4395199;32;20182;-70
2021/05/20 08:51:04;;;;;;;5.05;3.00;;;24.00;51.50;;;;;;4376969;32;20084;-66
2021/05/20 08:53:31;;;;;;;5.45;3.45;;;23.90;52.60;;;;;;4348114;32;20107;-63
2021/05/20 08:55:57;;;;;;;5.12;3.20;;;24.50;51.50;;;;;;4374822;32;20146;-63
2021/05/20 08:58:26;;;;;;;6.30;2.92;;;24.80;49.80;;;;;;4385220;32;20073;-64
2021/05/20 09:00:53;;;;;;;5.50;3.58;;;24.10;51.20;;;;;;4382292;32;20080;-64
2021/05/20 09:03:21;;;;;;;6.80;3.25;;;24.10;52.30;;;;;;4354905;32;20082;-63
2021/05/20 09:05:49;;;;;;;6.70;3.80;;;24.00;52.00;;;;;;4363302;32;20517;-63
2021/05/20 09:08:20;;;;;;;9.93;3.60;;;24.30;51.90;;;;;;4374926;32;20094;-64
2021/05/20 09:10:48;;;;;;;4.68;3.08;;;24.60;51.10;;;;;;4353643;32;20601;-63
2021/05/20 09:13:19;;;;;;;4.07;3.10;;;24.30;51.80;;;;;;4387040;32;20081;-65
2021/05/20 09:15:50;;;;;;;9.20;3.15;;;24.20;53.50;;;;;;4362266;32;20078;-63
2021/05/20 09:18:25;;;;;;;4.18;3.30;;;24.10;55.00;;;;;;4368889;32;20117;-64
2021/05/20 09:20:56;;;;;;;6.22;3.58;;;23.60;55.40;;;;;;4362789;32;20150;-64
2021/05/20 09:23:25;;;;;;;5.37;3.78;;;23.80;55.90;;;;;;4362863;32;20077;-63
2021/05/20 09:25:52;;;;;;;5.85;3.47;;;24.00;55.60;;;;;;4376395;32;20235;-62
2021/05/20 09:28:32;;;;;;;4.40;3.65;;;24.10;55.30;;;;;;4369743;32;20080;-62
2021/05/20 09:30:59;;;;;;;7.32;3.22;;;24.20;53.20;;;;;;4369050;32;20443;-65
2021/05/20 09:33:25;;;;;;;5.43;3.50;;;23.30;57.40;;;;;;4374648;32;20522;-64
2021/05/20 09:35:51;;;;;;;5.85;3.42;;;23.30;58.10;;;;;;4364851;32;20085;-66
2021/05/20 09:38:20;;;;;;;6.00;3.35;;;23.30;57.30;;;;;;4372133;32;20067;-63
2021/05/20 09:40:54;;;;;;;6.05;3.30;;;23.70;56.70;;;;;;4363515;32;20065;-66
2021/05/20 09:43:39;;;;;;;5.47;3.12;;;23.90;56.30;;;;;;4366692;32;20085;-65
2021/05/20 09:46:18;;;;;;;6.50;3.47;;;23.50;56.60;;;;;;4373309;32;20066;-65
2021/05/20 09:48:47;;;;;;;6.78;3.65;;;23.90;56.20;;;;;;4359920;32;20533;-65
2021/05/20 09:51:23;;;;;;;7.62;3.90;;;24.30;54.10;;;;;;4358945;32;20119;-63
2021/05/20 09:53:53;;;;;;;5.53;3.65;;;23.70;54.30;;;;;;4378943;32;20110;-63
2021/05/20 09:56:39;;;;;;;5.65;3.20;;;24.00;56.40;;;;;;4355630;32;20428;-64
2021/05/20 09:59:06;;;;;;;6.30;3.67;;;23.40;55.40;;;;;;4371128;32;20198;-69
2021/05/20 10:01:34;;;;;;;4.28;3.30;;;23.40;55.80;;;;;;4380483;32;20078;-63
2021/05/20 10:04:00;;;;;;;5.22;2.92;;;23.00;56.70;;;;;;4363808;32;20102;-61
2021/05/20 10:06:43;;;;;;;5.97;2.87;;;23.00;56.60;;;;;;4367276;32;20070;-63
2021/05/20 10:09:11;;;;;;;6.78;3.12;;;23.00;56.70;;;;;;4360126;32;20085;-65
2021/05/20 10:11:38;;;;;;;3.62;2.75;;;22.90;58.40;;;;;;4358141;32;20072;-66
2021/05/20 10:14:05;;;;;;;4.85;3.30;;;23.10;58.70;;;;;;4365868;32;20093;-66
2021/05/20 10:16:38;;;;;;;4.03;2.97;;;23.00;61.40;;;;;;4366260;32;20084;-67
2021/05/20 10:19:05;;;;;;;5.40;3.20;;;23.20;61.70;;;;;;4363820;32;20077;-71
2021/05/20 10:21:32;;;;;;;5.07;3.65;;;23.30;60.00;;;;;;4361700;32;20054;-70
2021/05/20 10:23:58;;;;;;;4.97;3.40;;;23.50;61.40;;;;;;4373886;32;20109;-72
2021/05/20 10:26:25;;;;;;;5.97;3.55;;;23.50;60.00;;;;;;4357642;32;20065;-68
2021/05/20 10:28:52;;;;;;;5.62;3.50;;;23.60;61.20;;;;;;4372498;32;20081;-71
2021/05/20 10:31:18;;;;;;;6.07;3.45;;;23.90;58.00;;;;;;4342488;32;20136;-71
2021/05/20 10:33:44;;;;;;;4.93;3.17;;;23.10;63.50;;;;;;4370646;32;20189;-63
2021/05/20 10:36:24;;;;;;;4.95;3.50;;;23.10;65.50;;;;;;4368989;32;20469;-65
2021/05/20 10:38:51;;;;;;;8.18;3.60;;;23.60;63.30;;;;;;4372005;32;20219;-65
2021/05/20 10:41:23;;;;;;;5.82;3.37;;;24.00;58.40;;;;;;4361202;32;20078;-64
2021/05/20 10:44:09;;;;;;;6.07;3.50;;;23.60;61.90;;;;;;4356927;32;20499;-65
2021/05/20 10:47:02;;;;;;;9.68;4.00;;;24.50;57.00;;;;;;4365432;32;20156;-67
2021/05/20 10:49:49;;;;;;;5.15;3.47;;;23.50;58.70;;;;;;4371056;32;20090;-69
2021/05/20 10:52:44;;;;;;;6.72;3.50;;;24.60;54.10;;;;;;4377424;32;20069;-64
2021/05/20 10:55:15;;;;;;;5.47;3.30;;;23.60;56.70;;;;;;4371570;32;20061;-69
2021/05/20 10:57:58;;;;;;;8.18;3.67;;;23.90;58.40;;;;;;4368501;32;20073;-68
2021/05/20 11:00:30;;;;;;;4.90;3.50;;;25.00;52.70;;;;;;4388997;32;20138;-64
2021/05/20 11:02:56;;;;;;;6.75;3.55;;;24.30;55.00;;;;;;4392108;32;20424;-64
2021/05/20 11:05:41;;;;;;;3.95;3.00;;;24.10;55.00;;;;;;4346905;32;20146;-64
2021/05/20 11:08:26;;;;;;;5.12;3.22;;;25.00;50.40;;;;;;4378087;32;20097;-62
2021/05/20 11:10:53;;;;;;;4.00;3.05;;;24.70;50.80;;;;;;4363306;32;20094;-63
2021/05/20 11:13:36;;;;;;;4.03;2.50;;;23.50;56.30;;;;;;4350318;32;20070;-62
2021/05/20 11:16:15;;;;;;;6.20;3.50;;;23.20;59.60;;;;;;4363405;32;20488;-60
2021/05/20 11:18:42;;;;;;;5.28;3.47;;;23.50;58.40;;;;;;4363733;32;20452;-62
2021/05/20 11:21:09;;;;;;;5.28;3.53;;;23.30;58.10;;;;;;4362673;32;20515;-61
2021/05/20 11:23:38;;;;;;;5.78;3.40;;;23.70;57.80;;;;;;4366149;32;20209;-62
2021/05/20 11:26:19;;;;;;;6.70;3.78;;;23.80;57.30;;;;;;4365753;32;20072;-61
2021/05/20 11:28:48;;;;;;;4.60;3.47;;;23.30;60.80;;;;;;4366833;32;20058;-62
2021/05/20 11:38:59;;;;;;;6.72;4.22;;;20.80;99.90;;;;;;4387814;32;20083;-62
2021/05/20 11:41:25;;;;;;;8.35;4.50;;;20.80;99.90;;;;;;4367024;32;20081;-63
2021/05/20 11:44:15;;;;;;;5.35;4.22;;;20.90;99.90;;;;;;4365766;32;20173;-62
2021/05/20 11:47:07;;;;;;;5.32;3.95;;;20.80;99.90;;;;;;4367111;32;20066;-62
2021/05/20 11:49:34;;;;;;;6.10;3.85;;;20.70;99.90;;;;;;4370395;32;20174;-62
2021/05/20 11:52:08;;;;;;;4.12;3.42;;;20.90;99.90;;;;;;4366623;32;20076;-62
2021/05/20 11:54:46;;;;;;;5.53;3.80;;;20.90;99.90;;;;;;4355810;32;20078;-60
2021/05/20 11:57:14;;;;;;;6.40;4.10;;;21.00;99.90;;;;;;4354272;32;20436;-61
2021/05/20 11:59:43;;;;;;;6.68;4.25;;;21.50;99.90;;;;;;4353066;32;20520;-61
2021/05/20 12:02:22;;;;;;;7.00;4.12;;;21.30;99.90;;;;;;4365274;32;20157;-62
2021/05/20 12:04:56;;;;;;;7.43;4.43;;;21.30;99.90;;;;;;4378506;32;20089;-61
2021/05/20 12:07:27;;;;;;;7.95;4.57;;;21.40;99.90;;;;;;4378942;32;20074;-62
2021/05/20 12:09:55;;;;;;;8.18;4.00;;;21.30;99.90;;;;;;4353695;32;20085;-61
2021/05/20 12:12:21;;;;;;;7.20;3.22;;;20.20;99.90;;;;;;4365243;32;20508;-61
2021/05/20 12:14:49;;;;;;;4.57;2.83;;;19.40;99.90;;;;;;4352685;32;20172;-60
2021/05/20 12:17:22;;;;;;;4.18;2.53;;;19.30;99.90;;;;;;4352890;32;20117;-62
2021/05/20 12:19:51;;;;;;;6.18;2.70;;;19.40;99.90;;;;;;4373206;32;20098;-66
2021/05/20 12:22:29;;;;;;;4.72;2.28;;;18.80;99.90;;;;;;4372474;32;20101;-61
2021/05/20 12:25:05;;;;;;;4.03;2.17;;;18.20;99.90;;;;;;4362749;32;20089;-62
2021/05/20 12:27:44;;;;;;;3.62;2.05;;;18.00;99.90;;;;;;4377228;32;20081;-62
2021/05/20 12:30:21;;;;;;;2.97;2.08;;;17.80;99.90;;;;;;4378050;32;20062;-60
2021/05/20 12:32:52;;;;;;;4.20;2.15;;;17.90;99.90;;;;;;4376926;32;20070;-62
2021/05/20 12:35:32;;;;;;;2.95;1.45;;;17.80;99.90;;;;;;4365114;32;20070;-62
2021/05/20 12:38:09;;;;;;;2.58;1.48;;;18.00;99.90;;;;;;4375238;32;20098;-63
2021/05/20 12:40:50;;;;;;;3.03;2.22;;;18.30;99.90;;;;;;4350841;32;20452;-61
2021/05/20 12:43:27;;;;;;;2.37;1.67;;;18.40;99.90;;;;;;4374716;32;20074;-62
2021/05/20 12:46:05;;;;;;;2.65;2.03;;;18.50;99.90;;;;;;4350352;32;20098;-62
2021/05/20 12:48:38;;;;;;;2.50;2.20;;;18.40;99.90;;;;;;4363157;32;20090;-62
2021/05/20 12:51:14;;;;;;;5.57;2.28;;;18.60;99.90;;;;;;4363067;32;20081;-60
2021/05/20 12:53:51;;;;;;;3.80;2.33;;;18.40;99.90;;;;;;4369003;32;20085;-62
2021/05/20 12:56:28;;;;;;;3.28;2.35;;;18.50;99.90;;;;;;4376159;32;20100;-63
2021/05/20 12:59:10;;;;;;;4.60;2.40;;;18.20;99.90;;;;;;4361068;32;20092;-62
2021/05/20 13:01:43;;;;;;;4.62;2.60;;;18.10;99.90;;;;;;4352107;32;20460;-62
2021/05/20 13:04:24;;;;;;;8.30;2.62;;;18.10;99.90;;;;;;4372412;32;20076;-64
2021/05/20 13:07:13;;;;;;;4.75;2.90;;;17.90;99.90;;;;;;4371949;32;20185;-64
2021/05/20 13:09:42;;;;;;;3.37;2.40;;;18.00;99.90;;;;;;4381603;32;20120;-64
2021/05/20 13:12:13;;;;;;;4.60;2.75;;;17.90;99.90;;;;;;4355096;32;20039;-64
2021/05/20 13:14:41;;;;;;;4.65;3.00;;;17.90;99.90;;;;;;4373522;32;20092;-64
2021/05/20 13:22:52;;;;;;;3.47;2.87;;;17.80;99.90;;;;;;4383814;32;20481;-64
2021/05/20 13:25:20;;;;;;;6.82;3.37;;;17.90;99.90;;;;;;4364003;32;20066;-64
2021/05/20 13:27:47;;;;;;;4.45;3.00;;;18.20;99.90;;;;;;4366224;32;20077;-65
2021/05/20 13:30:21;;;;;;;3.45;2.87;;;18.20;99.90;;;;;;4362203;32;21534;-62
2021/05/20 13:32:52;;;;;;;3.90;2.90;;;18.30;99.90;;;;;;4380085;32;20078;-66
2021/05/20 13:35:19;;;;;;;4.95;3.28;;;18.30;99.90;;;;;;4357913;32;20069;-66
2021/05/20 13:37:45;;;;;;;5.57;2.90;;;18.30;99.90;;;;;;4370543;32;20088;-68
2021/05/20 13:40:22;;;;;;;4.90;3.10;;;18.70;99.90;;;;;;4372051;32;20150;-69
2021/05/20 13:42:49;;;;;;;4.53;3.10;;;19.00;99.90;;;;;;4363853;32;20088;-71
2021/05/20 13:45:16;;;;;;;6.10;2.90;;;18.80;99.90;;;;;;4354096;32;20088;-65
2021/05/20 13:47:43;;;;;;;3.90;3.00;;;18.90;99.90;;;;;;4384166;32;20173;-68
2021/05/20 13:50:10;;;;;;;5.05;3.03;;;19.00;99.90;;;;;;4378539;32;20496;-64
2021/05/20 13:52:41;;;;;;;5.40;3.00;;;19.10;99.90;;;;;;4381989;32;20181;-64
2021/05/20 13:55:09;;;;;;;4.05;2.75;;;19.10;99.90;;;;;;4365717;32;20186;-66
2021/05/20 13:57:36;;;;;;;3.65;2.78;;;19.40;99.90;;;;;;4362284;32;20155;-70
2021/05/20 14:02:42;;;;;;;5.90;2.70;;;19.60;99.90;;;;;;3827991;37;20055;-64
2021/05/20 14:05:08;;;;;;;4.45;2.90;;;19.10;99.90;;;;;;4387867;32;20138;-68
2021/05/20 14:07:34;;;;;;;5.25;3.00;;;19.30;99.90;;;;;;4386510;32;20539;-64
2021/05/20 14:10:06;;;;;;;4.35;2.70;;;19.40;99.90;;;;;;4393313;32;20491;-64
2021/05/20 14:12:33;;;;;;;4.28;2.55;;;19.50;99.90;;;;;;4391175;32;20089;-64
2021/05/20 14:14:59;;;;;;;4.32;2.70;;;19.20;99.90;;;;;;4393599;32;20160;-70
2021/05/20 14:17:25;;;;;;;3.67;2.55;;;19.20;99.90;;;;;;4361460;32;20120;-63
2021/05/20 14:19:55;;;;;;;3.10;2.40;;;19.10;99.90;;;;;;4383480;32;20112;-63
2021/05/20 14:22:21;;;;;;;3.22;2.28;;;18.70;99.90;;;;;;4377921;32;20062;-66
2021/05/20 14:24:48;;;;;;;3.58;2.45;;;18.50;99.90;;;;;;4377215;32;20084;-64
2021/05/20 14:27:16;;;;;;;3.95;2.15;;;18.60;99.90;;;;;;4374229;32;20147;-67
2021/05/20 14:29:43;;;;;;;2.92;2.30;;;18.50;99.90;;;;;;4379965;32;20109;-67
2021/05/20 14:32:09;;;;;;;4.10;2.15;;;18.50;99.90;;;;;;4385203;32;20102;-65
2021/05/20 14:34:36;;;;;;;4.03;2.53;;;18.30;99.90;;;;;;4331059;32;20110;-65
2021/05/20 14:37:02;;;;;;;3.03;2.08;;;18.40;99.90;;;;;;4344094;32;20112;-64
2021/05/20 14:39:29;;;;;;;3.28;2.40;;;18.30;99.90;;;;;;4384941;32;20070;-65
2021/05/20 14:41:56;;;;;;;4.30;2.33;;;18.70;99.90;;;;;;4369295;32;20094;-68
2021/05/20 14:44:23;;;;;;;4.30;2.40;;;18.60;99.90;;;;;;4368700;32;20055;-68
2021/05/20 14:46:50;;;;;;;3.22;2.33;;;19.10;99.90;;;;;;4359350;32;20102;-66
2021/05/20 14:52:03;;;;;;;4.05;2.58;;;19.20;99.90;;;;;;4379765;32;20467;-72
2021/05/20 14:54:32;;;;;;;3.00;2.40;;;19.20;99.90;;;;;;4359445;32;20073;-75
2021/05/20 15:07:25;;;;;;;4.00;2.90;;;19.30;99.90;;;;;;4359236;32;20070;-69
2021/05/20 15:13:04;;;;;;;3.85;2.97;;;19.10;99.90;;;;;;4366824;32;20099;-70
2021/05/20 15:15:14;;;;;;;7.28;3.42;;;19.30;99.90;;;;;;4349074;32;20587;-67
2021/05/20 15:17:50;;;;;;;3.92;3.00;;;19.00;99.90;;;;;;4338090;32;20058;-69
2021/05/20 15:20:18;;;;;;;4.28;3.17;;;19.00;99.90;;;;;;4350771;32;20086;-69
2021/05/20 15:22:45;;;;;;;4.45;3.03;;;19.10;99.90;;;;;;4341502;32;20070;-70
2021/05/20 15:25:12;;;;;;;5.57;3.33;;;18.90;99.90;;;;;;4348225;32;20082;-68
2021/05/20 15:27:39;;;;;;;6.87;3.42;;;19.00;99.90;;;;;;4346617;32;20611;-66
2021/05/20 15:30:06;;;;;;;5.65;3.85;;;18.90;99.90;;;;;;4336364;32;20922;-66
2021/05/20 15:32:33;;;;;;;4.87;3.33;;;18.90;99.90;;;;;;4350490;32;20102;-66
2021/05/20 15:35:04;;;;;;;4.25;3.30;;;19.00;99.90;;;;;;4350817;32;20915;-68
2021/05/20 15:37:31;;;;;;;5.25;3.60;;;19.10;99.90;;;;;;4360942;32;20059;-64
2021/05/20 15:39:58;;;;;;;4.60;3.35;;;19.10;99.90;;;;;;4361039;32;20054;-68
2021/05/20 15:42:24;;;;;;;4.57;3.55;;;19.10;99.90;;;;;;4361183;32;20457;-65
2021/05/20 15:44:51;;;;;;;6.28;3.37;;;19.10;99.90;;;;;;4347981;32;20090;-66
2021/05/20 15:52:35;;;;;;;5.20;3.60;;;19.20;99.90;;;;;;4348762;32;20516;-65
2021/05/20 15:55:06;;;;;;;6.07;4.15;;;19.20;99.90;;;;;;4361995;32;20569;-64
2021/05/20 15:57:33;;;;;;;5.32;3.60;;;19.30;99.90;;;;;;4363693;32;20077;-64
2021/05/20 16:00:00;;;;;;;5.15;3.62;;;19.40;99.90;;;;;;4361293;32;20071;-64
2021/05/20 16:02:26;;;;;;;5.10;3.40;;;19.40;99.90;;;;;;4348820;32;20086;-65
2021/05/20 16:04:53;;;;;;;6.10;4.28;;;19.40;99.90;;;;;;4337329;32;20063;-65
2021/05/20 16:07:43;;;;;;;6.20;4.10;;;19.50;99.90;;;;;;4337138;32;20071;-65
2021/05/20 16:15:15;;;;;;;5.43;4.32;;;19.30;99.90;;;;;;4339951;32;20083;-65
2021/05/20 16:17:41;;;;;;;4.70;3.70;;;19.30;99.90;;;;;;4349947;32;20063;-65
2021/05/20 16:20:08;;;;;;;6.18;4.40;;;19.30;99.90;;;;;;4366537;32;20066;-65
2021/05/20 16:28:07;;;;;;;7.10;4.60;;;19.40;99.90;;;;;;4364431;32;20066;-65
2021/05/20 16:38:49;;;;;;;9.45;4.97;;;19.20;99.90;;;;;;4361178;32;20222;-63
2021/05/20 16:41:15;;;;;;;6.45;4.60;;;19.20;99.90;;;;;;4348255;32;20074;-65
2021/05/20 16:43:41;;;;;;;11.38;4.93;;;19.20;99.90;;;;;;4362050;32;20139;-65
2021/05/20 16:46:07;;;;;;;7.25;4.43;;;19.20;99.90;;;;;;4348472;32;20074;-65
2021/05/20 16:48:34;;;;;;;7.47;4.78;;;19.20;99.90;;;;;;4323680;32;20072;-64
2021/05/20 16:51:01;;;;;;;6.75;4.60;;;19.30;99.90;;;;;;4335736;32;20077;-65
2021/05/20 16:53:27;;;;;;;9.65;6.35;;;19.20;99.90;;;;;;4360426;32;20094;-65
2021/05/20 16:58:43;;;;;;;7.35;5.12;;;19.00;99.90;;;;;;4360826;32;20157;-64
2021/05/20 17:01:09;;;;;;;8.15;4.95;;;18.90;99.90;;;;;;4347806;32;20130;-65
2021/05/20 17:03:36;;;;;;;8.88;5.50;;;18.80;99.90;;;;;;4348372;32;20613;-64
2021/05/20 17:06:02;;;;;;;10.02;5.87;;;18.80;99.90;;;;;;4335921;32;20071;-64
2021/05/20 17:08:29;;;;;;;11.95;5.97;;;18.60;99.90;;;;;;4335779;32;20069;-66
2021/05/20 17:11:01;;;;;;;14.15;7.07;;;18.40;99.90;;;;;;4335718;32;20075;-64
2021/05/20 17:13:32;;;;;;;13.75;6.40;;;18.40;99.90;;;;;;4325594;32;20073;-65
2021/05/20 17:15:59;;;;;;;12.37;6.47;;;18.50;99.90;;;;;;4346461;32;20074;-65
2021/05/20 17:18:26;;;;;;;11.73;6.57;;;18.50;99.90;;;;;;4363230;32;20153;-64
2021/05/20 17:20:53;;;;;;;11.60;7.05;;;18.50;99.90;;;;;;4370519;32;20070;-63
2021/05/20 17:23:19;;;;;;;11.80;6.68;;;18.50;99.90;;;;;;4362960;32;20090;-64
2021/05/20 17:25:46;;;;;;;11.07;6.97;;;18.60;99.90;;;;;;4337933;32;20552;-63
2021/05/20 17:28:12;;;;;;;15.02;7.70;;;18.50;99.90;;;;;;4375326;32;20078;-64
2021/05/20 17:30:38;;;;;;;12.85;7.18;;;18.50;99.90;;;;;;4375554;32;20062;-66
2021/05/20 17:33:04;;;;;;;9.43;6.35;;;18.40;99.90;;;;;;4375283;32;20078;-65
2021/05/20 17:35:30;;;;;;;12.20;6.18;;;18.40;99.90;;;;;;4374922;32;20070;-65
2021/05/20 17:37:56;;;;;;;9.15;6.37;;;18.50;99.90;;;;;;4350675;32;20088;-65
2021/05/20 17:40:23;;;;;;;11.05;6.70;;;18.50;99.90;;;;;;4374974;32;20074;-63
2021/05/20 17:42:49;;;;;;;9.75;5.90;;;18.50;99.90;;;;;;4362892;32;20070;-65
2021/05/20 17:45:15;;;;;;;13.82;6.35;;;18.40;99.90;;;;;;4350890;32;20244;-63
2021/05/20 17:47:43;;;;;;;10.32;6.22;;;18.40;99.90;;;;;;4350626;32;20061;-63
2021/05/20 17:50:11;;;;;;;10.18;5.12;;;18.40;99.90;;;;;;4362657;32;20159;-64
2021/05/20 17:52:37;;;;;;;10.93;5.97;;;18.60;99.90;;;;;;4362705;32;20479;-65
2021/05/20 17:55:06;;;;;;;10.20;6.35;;;18.60;99.90;;;;;;4362732;32;20091;-64
2021/05/20 17:57:32;;;;;;;10.45;6.78;;;18.60;99.90;;;;;;4362674;32;20061;-66
2021/05/20 18:00:17;;;;;;;8.25;5.05;;;18.60;99.90;;;;;;4375316;32;20138;-65
2021/05/20 18:02:45;;;;;;;9.80;5.25;;;18.60;99.90;;;;;;4376230;32;20217;-66
2021/05/20 18:05:12;;;;;;;7.18;5.00;;;18.60;99.90;;;;;;4363248;32;20062;-65
2021/05/20 18:07:39;;;;;;;8.57;5.07;;;18.70;99.90;;;;;;4350806;32;20081;-65
2021/05/20 18:10:06;;;;;;;7.15;4.47;;;18.70;99.90;;;;;;4368052;32;20069;-65
2021/05/20 18:12:50;;;;;;;8.45;4.87;;;18.60;99.90;;;;;;4357248;32;20441;-67
2021/05/20 18:18:01;;;;;;;10.65;5.05;;;18.70;99.90;;;;;;4348904;32;20063;-63
2021/05/20 18:20:40;;;;;;;7.72;5.75;;;18.80;99.90;;;;;;4368584;32;20162;-65
2021/05/20 18:23:06;;;;;;;10.15;5.53;;;18.70;99.90;;;;;;4375637;32;20077;-66
2021/05/20 18:25:32;;;;;;;7.53;5.00;;;18.70;99.90;;;;;;4374702;32;20050;-65
2021/05/20 18:28:01;;;;;;;10.30;5.40;;;18.70;99.90;;;;;;4362471;32;20187;-66
2021/05/20 18:30:30;;;;;;;8.82;5.93;;;18.80;99.90;;;;;;4350271;32;20079;-64
2021/05/20 18:32:56;;;;;;;8.77;5.10;;;18.80;99.90;;;;;;4376285;32;20062;-65
2021/05/20 18:35:23;;;;;;;8.32;5.80;;;18.70;99.90;;;;;;4350197;32;20097;-64
2021/05/20 18:37:52;;;;;;;7.25;5.05;;;18.50;99.90;;;;;;4359857;32;20071;-65
2021/05/20 18:40:18;;;;;;;9.02;5.20;;;18.50;99.90;;;;;;4360000;32;20067;-65
2021/05/20 18:42:47;;;;;;;7.82;5.28;;;18.40;99.90;;;;;;4335493;32;20512;-64
2021/05/20 18:45:15;;;;;;;7.95;5.72;;;18.40;99.90;;;;;;4347621;32;20079;-65
2021/05/20 18:47:45;;;;;;;6.93;4.87;;;18.40;99.90;;;;;;4336463;32;20074;-64
2021/05/20 18:50:23;;;;;;;7.32;4.97;;;18.60;99.90;;;;;;4338570;32;20163;-64
2021/05/20 18:52:50;;;;;;;6.85;5.30;;;18.60;99.90;;;;;;4350794;32;20069;-63
2021/05/20 18:55:18;;;;;;;9.88;5.43;;;18.50;99.90;;;;;;4325948;32;20148;-65
2021/05/20 18:57:45;;;;;;;7.60;5.12;;;18.50;99.90;;;;;;4338236;32;20142;-65
2021/05/20 19:00:16;;;;;;;8.88;5.32;;;18.50;99.90;;;;;;4350138;32;20162;-63
2021/05/20 19:02:43;;;;;;;8.00;5.65;;;18.40;99.90;;;;;;4338086;32;20073;-63
2021/05/20 19:05:17;;;;;;;12.63;5.95;;;18.30;99.90;;;;;;4364265;32;20067;-66
2021/05/20 19:08:01;;;;;;;8.50;6.18;;;18.20;99.90;;;;;;4350774;32;20082;-65
2021/05/20 19:10:30;;;;;;;8.02;5.40;;;18.10;99.90;;;;;;4340941;32;20515;-65
2021/05/20 19:12:56;;;;;;;9.60;5.40;;;18.30;99.90;;;;;;4338120;32;20077;-65
2021/05/20 19:15:23;;;;;;;7.97;5.70;;;18.20;99.90;;;;;;4355814;32;20070;-64
2021/05/20 19:17:49;;;;;;;14.40;6.30;;;18.10;99.90;;;;;;4364817;32;20089;-63
2021/05/20 19:20:17;;;;;;;19.10;6.80;;;18.00;99.90;;;;;;4368174;32;20066;-63
2021/05/20 19:22:49;;;;;;;14.52;6.97;;;17.90;99.90;;;;;;4339925;32;20142;-64
2021/05/20 19:25:16;;;;;;;10.70;6.22;;;17.80;99.90;;;;;;4353278;32;20086;-65
2021/05/20 19:27:43;;;;;;;13.70;6.43;;;18.00;99.90;;;;;;4364840;32;20078;-64
2021/05/20 19:30:13;;;;;;;10.55;5.80;;;18.10;99.90;;;;;;4364678;32;20077;-65
2021/05/20 19:32:39;;;;;;;9.98;5.78;;;18.10;99.90;;;;;;4352268;32;20070;-65
2021/05/20 19:35:07;;;;;;;7.45;5.30;;;18.20;99.90;;;;;;4352093;32;20456;-63
2021/05/20 19:37:39;;;;;;;8.88;5.53;;;18.30;99.90;;;;;;4353699;32;20066;-64
2021/05/20 19:40:06;;;;;;;8.20;5.32;;;18.30;99.90;;;;;;4377012;32;20078;-64
2021/05/20 19:42:32;;;;;;;8.55;5.32;;;18.30;99.90;;;;;;4352148;32;20088;-65
2021/05/20 19:44:58;;;;;;;9.20;5.53;;;18.20;99.90;;;;;;4364157;32;20062;-63
2021/05/20 19:47:26;;;;;;;11.95;5.25;;;18.10;99.90;;;;;;4364356;32;20061;-65
2021/05/20 19:50:04;;;;;;;7.28;5.47;;;18.10;99.90;;;;;;4364402;32;20088;-65
2021/05/20 19:52:36;;;;;;;8.02;5.30;;;18.10;99.90;;;;;;4365921;32;20144;-64
2021/05/20 20:00:57;;;;;;;7.20;5.20;;;18.00;99.90;;;;;;4365440;32;20602;-63
2021/05/20 20:11:27;;;;;;;10.52;5.55;;;17.90;99.90;;;;;;4369925;32;20149;-63
2021/05/20 20:13:53;;;;;;;9.48;5.47;;;17.90;99.90;;;;;;4363870;32;20066;-66
2021/05/20 20:16:22;;;;;;;8.27;5.37;;;17.90;99.90;;;;;;4361192;32;20058;-64
2021/05/20 20:18:50;;;;;;;6.60;4.93;;;17.90;99.90;;;;;;4336730;32;20071;-65
2021/05/20 20:21:19;;;;;;;8.18;5.43;;;17.80;99.90;;;;;;4361579;32;20074;-64
2021/05/20 20:29:15;;;;;;;7.70;6.07;;;17.80;99.90;;;;;;4365612;32;20157;-64
2021/05/20 20:31:41;;;;;;;7.00;4.80;;;17.90;99.90;;;;;;4363282;32;20074;-66
2021/05/20 20:37:07;;;;;;;7.53;5.80;;;17.80;99.90;;;;;;4367034;32;20142;-67
2021/05/20 20:42:19;;;;;;;10.63;5.47;;;17.80;99.90;;;;;;4362245;32;20464;-64
2021/05/20 20:44:51;;;;;;;8.73;5.25;;;17.80;99.90;;;;;;4336532;32;20090;-65
2021/05/20 20:47:19;;;;;;;7.95;4.87;;;17.70;99.90;;;;;;4336614;32;20520;-65
2021/05/20 20:49:48;;;;;;;7.03;4.85;;;17.70;99.90;;;;;;4361994;32;20549;-65
2021/05/20 20:52:15;;;;;;;7.68;5.07;;;17.70;99.90;;;;;;4348472;32;20059;-65
2021/05/20 20:54:41;;;;;;;9.77;5.47;;;17.60;99.90;;;;;;4360402;32;20094;-65
2021/05/20 20:57:07;;;;;;;8.23;5.40;;;17.60;99.90;;;;;;4348214;32;20070;-65
2021/05/20 20:59:34;;;;;;;9.23;5.35;;;17.60;99.90;;;;;;4336215;32;20081;-65
2021/05/20 21:02:00;;;;;;;8.20;5.68;;;17.60;99.90;;;;;;4348064;32;20082;-65
2021/05/20 21:04:26;;;;;;;9.27;5.53;;;17.50;99.90;;;;;;4348038;32;20075;-64
2021/05/20 21:06:52;;;;;;;9.63;5.90;;;17.50;99.90;;;;;;4362113;32;20081;-64
2021/05/20 21:09:18;;;;;;;9.50;6.50;;;17.30;99.90;;;;;;4347776;32;20061;-64
2021/05/20 21:11:46;;;;;;;24.30;11.02;;;17.10;99.90;;;;;;4347722;32;20156;-65
2021/05/20 21:14:12;;;;;;;21.23;14.18;;;16.40;99.90;;;;;;4348272;32;20508;-64
2021/05/20 21:16:38;;;;;;;22.75;12.60;;;16.20;99.90;;;;;;4385095;32;20447;-64
2021/05/20 21:19:05;;;;;;;21.73;11.98;;;16.20;99.90;;;;;;4375630;32;20163;-63
2021/05/20 21:21:31;;;;;;;18.17;9.57;;;16.20;99.90;;;;;;4374964;32;20512;-69
2021/05/20 21:23:57;;;;;;;20.77;12.40;;;16.30;99.90;;;;;;4363196;32;20068;-63
2021/05/20 21:26:26;;;;;;;18.98;11.32;;;16.40;99.90;;;;;;4363026;32;20162;-64
2021/05/20 21:28:53;;;;;;;14.93;10.45;;;16.40;99.90;;;;;;4350671;32;20152;-65
2021/05/20 21:31:22;;;;;;;20.17;11.18;;;16.50;99.90;;;;;;4362837;32;20218;-64
2021/05/20 21:33:48;;;;;;;13.82;9.20;;;16.70;99.90;;;;;;4351193;32;20436;-65
2021/05/20 21:36:14;;;;;;;13.50;7.70;;;16.70;99.90;;;;;;4357680;32;20089;-63
2021/05/20 21:38:40;;;;;;;10.43;6.65;;;16.90;99.90;;;;;;4335412;32;20082;-65
2021/05/20 21:41:08;;;;;;;8.18;6.40;;;17.00;99.90;;;;;;4361362;32;20086;-65
2021/05/20 21:43:38;;;;;;;10.50;6.57;;;17.10;99.90;;;;;;4335781;32;20119;-64
2021/05/20 21:46:06;;;;;;;9.43;6.80;;;17.10;99.90;;;;;;4336438;32;20124;-64
2021/05/20 21:48:32;;;;;;;7.65;6.12;;;17.20;99.90;;;;;;4335510;32;20074;-65
2021/05/20 21:50:58;;;;;;;10.38;6.50;;;17.10;99.90;;;;;;4359806;32;20150;-64
2021/05/20 21:53:24;;;;;;;7.45;6.10;;;17.20;99.90;;;;;;4347889;32;20086;-65
2021/05/20 21:55:51;;;;;;;7.30;5.90;;;17.20;99.90;;;;;;4347815;32;20066;-64
2021/05/20 21:58:17;;;;;;;9.35;5.82;;;17.20;99.90;;;;;;4359878;32;20510;-65
2021/05/20 22:00:43;;;;;;;8.90;6.47;;;17.10;99.90;;;;;;4347258;32;20550;-63
2021/05/20 22:03:11;;;;;;;8.65;5.93;;;17.10;99.90;;;;;;4323236;32;20430;-64
2021/05/20 22:05:38;;;;;;;8.18;5.75;;;17.10;99.90;;;;;;4336389;32;20066;-65
2021/05/20 22:08:05;;;;;;;8.30;6.47;;;17.10;99.90;;;;;;4335508;32;20078;-64
2021/05/20 22:13:07;;;;;;;8.07;5.60;;;17.00;99.90;;;;;;4347391;32;20521;-64
2021/05/20 22:15:35;;;;;;;;;;;17.00;99.90;;;;;;4330037;32;20163;-65
2021/05/20 22:18:04;;;;;;;9.30;6.07;;;17.00;99.90;;;;;;4360367;32;19978;-65
2021/05/20 22:20:31;;;;;;;7.30;5.50;;;17.00;99.90;;;;;;4343113;32;20155;-66
2021/05/20 22:22:57;;;;;;;9.07;5.45;;;17.00;99.90;;;;;;4363412;32;20070;-65
2021/05/20 22:25:27;;;;;;;7.10;6.00;;;16.90;99.90;;;;;;4365048;32;20456;-64
2021/05/20 22:30:38;;;;;;;8.17;5.20;;;17.00;99.90;;;;;;4366580;32;20081;-65
2021/05/20 22:33:04;;;;;;;8.32;5.55;;;17.00;99.90;;;;;;4365812;32;20160;-63
2021/05/20 22:35:31;;;;;;;7.45;5.80;;;16.90;99.90;;;;;;4339788;32;20148;-66
2021/05/20 22:37:57;;;;;;;6.90;5.45;;;16.90;99.90;;;;;;4337950;32;20159;-64
2021/05/20 22:40:23;;;;;;;7.95;5.50;;;16.80;99.90;;;;;;4350476;32;20078;-64
2021/05/20 22:42:49;;;;;;;7.18;5.30;;;16.80;99.90;;;;;;4350419;32;20078;-64
2021/05/20 22:45:16;;;;;;;7.47;5.50;;;16.80;99.90;;;;;;4350116;32;20074;-65
2021/05/20 22:47:50;;;;;;;8.98;5.22;;;16.80;99.90;;;;;;4350240;32;20078;-64
2021/05/20 22:50:16;;;;;;;7.62;5.40;;;16.90;99.90;;;;;;4339032;32;20156;-64
2021/05/20 22:52:43;;;;;;;6.75;5.18;;;16.90;99.90;;;;;;4338110;32;20154;-64
2021/05/20 22:55:10;;;;;;;7.43;5.43;;;16.80;99.90;;;;;;4337440;32;20063;-63
2021/05/20 22:57:37;;;;;;;8.18;5.30;;;16.80;99.90;;;;;;4350058;32;20067;-65